Terminal Aerodrome Forecast
Issued by NWS

Home | Current Version | Previous Version | Text Only | Print | Product List | Glossary Off
Versions: 1 2 3 4 5 6 7 8 9 10 11 12 13 14 15 16 17 18

000
FTUS45 KGGW 211720
TAFOLF
TAF
KOLF 211720Z 2118/2218 25006KT P6SM VCSH BKN090
     FM212200 29006KT 6SM -RA SCT030 OVC035
     FM212300 32007KT 5SM -RA BKN025
     FM220600 03006KT 2SM -SN SCT003 OVC007
     FM221500 03008KT P6SM VCSH OVC015=

USA.gov is the U.S. government's official web portal to all federal, state and local government web resources and services.